Vistas del Convento, Puerto Rico
Current Conditions -  °F | °C
As of 9:53 AM on Thursday 29 Jan 2015 (Local Time) from TJNR Reporting Station
Overcast Overcast  
Wind Chill: 80°   Ceiling: 8000
Heat Index: 83°   Visibility: 10mi
Dew Point: 70°   Wind: 6mph
Humidity: 71%   Direction: 60°ENE
Pressure: 30.08"   Gusts: NA
Location:  18.3304°N, 65.6573°W
Report Text: TJNR 291353Z AUTO 06005KT 10SM SCT025 OVC080 27/21 A3008 RMK AO2 SLP184 T02670211 $
Loading
Personal Weather Stations






























Interactive Weather Map New forecast layout! Learn more

10-Day Weather Forecast

Advertisements
Track Severe Weather on mobile